sensor_id;sensor_type;location;lat;lon;timestamp;P1;durP1;ratioP1;P2;durP2;ratioP2
1693;SDS011;71975;47.068;15.408;2024-02-23T12:41:04;7.00;;;2.97;;
1693;SDS011;71975;47.068;15.408;2024-02-23T12:46:07;2.93;;;2.63;;
1693;SDS011;71975;47.068;15.408;2024-02-23T12:51:10;3.07;;;2.67;;
1693;SDS011;71975;47.068;15.408;2024-02-23T12:56:15;3.87;;;3.50;;
1693;SDS011;71975;47.068;15.408;2024-02-23T13:01:19;3.00;;;2.70;;
1693;SDS011;71975;47.068;15.408;2024-02-23T13:06:22;3.00;;;2.80;;
1693;SDS011;71975;47.068;15.408;2024-02-23T13:11:26;3.47;;;3.17;;
1693;SDS011;71975;47.068;15.408;2024-02-23T13:16:30;3.70;;;2.90;;
1693;SDS011;71975;47.068;15.408;2024-02-23T13:21:33;3.73;;;3.40;;
1693;SDS011;71975;47.068;15.408;2024-02-23T13:26:37;8.07;;;4.73;;
1693;SDS011;71975;47.068;15.408;2024-02-23T13:31:40;3.53;;;3.20;;
1693;SDS011;71975;47.068;15.408;2024-02-23T13:36:43;16.20;;;11.30;;
1693;SDS011;71975;47.068;15.408;2024-02-23T13:41:47;4.53;;;3.50;;
1693;SDS011;71975;47.068;15.408;2024-02-23T13:46:50;4.37;;;3.30;;
1693;SDS011;71975;47.068;15.408;2024-02-23T13:51:53;3.83;;;3.40;;
1693;SDS011;71975;47.068;15.408;2024-02-23T13:56:57;4.33;;;3.80;;
1693;SDS011;71975;47.068;15.408;2024-02-23T14:02:00;4.70;;;4.20;;
1693;SDS011;71975;47.068;15.408;2024-02-23T14:07:04;7.10;;;5.87;;
1693;SDS011;71975;47.068;15.408;2024-02-23T14:12:08;8.17;;;5.80;;
1693;SDS011;71975;47.068;15.408;2024-02-23T14:17:12;8.93;;;6.27;;
1693;SDS011;71975;47.068;15.408;2024-02-23T14:22:15;5.83;;;5.23;;
1693;SDS011;71975;47.068;15.408;2024-02-23T14:27:20;7.43;;;6.43;;
1693;SDS011;71975;47.068;15.408;2024-02-23T14:32:23;11.00;;;7.30;;
1693;SDS011;71975;47.068;15.408;2024-02-23T14:37:26;13.60;;;11.37;;
1693;SDS011;71975;47.068;15.408;2024-02-23T14:42:30;6.53;;;5.87;;
1693;SDS011;71975;47.068;15.408;2024-02-23T14:47:33;6.90;;;6.27;;
1693;SDS011;71975;47.068;15.408;2024-02-23T14:52:46;7.80;;;6.07;;
1693;SDS011;71975;47.068;15.408;2024-02-23T14:57:51;9.67;;;7.03;;
1693;SDS011;71975;47.068;15.408;2024-02-23T15:02:54;5.77;;;4.77;;
1693;SDS011;71975;47.068;15.408;2024-02-23T15:07:56;4.93;;;4.30;;
1693;SDS011;71975;47.068;15.408;2024-02-23T15:13:01;5.73;;;4.60;;
1693;SDS011;71975;47.068;15.408;2024-02-23T15:18:04;5.37;;;4.27;;
1693;SDS011;71975;47.068;15.408;2024-02-23T15:23:07;5.13;;;4.57;;
1693;SDS011;71975;47.068;15.408;2024-02-23T15:28:12;4.90;;;4.50;;
1693;SDS011;71975;47.068;15.408;2024-02-23T15:33:15;5.50;;;5.00;;
1693;SDS011;71975;47.068;15.408;2024-02-23T15:38:18;6.90;;;4.80;;
1693;SDS011;71975;47.068;15.408;2024-02-23T15:43:22;6.10;;;4.77;;
1693;SDS011;71975;47.068;15.408;2024-02-23T15:48:25;6.20;;;5.53;;
1693;SDS011;71975;47.068;15.408;2024-02-23T15:53:28;6.37;;;5.07;;
1693;SDS011;71975;47.068;15.408;2024-02-23T15:58:33;5.90;;;5.50;;
1693;SDS011;71975;47.068;15.408;2024-02-23T16:03:36;5.80;;;5.13;;
1693;SDS011;71975;47.068;15.408;2024-02-23T16:08:39;6.50;;;5.20;;
1693;SDS011;71975;47.068;15.408;2024-02-23T16:13:46;6.33;;;5.73;;
1693;SDS011;71975;47.068;15.408;2024-02-23T16:18:49;9.93;;;7.07;;
1693;SDS011;71975;47.068;15.408;2024-02-23T16:23:52;6.10;;;5.60;;
1693;SDS011;71975;47.068;15.408;2024-02-23T16:28:56;9.13;;;6.87;;
1693;SDS011;71975;47.068;15.408;2024-02-23T16:33:59;7.53;;;6.77;;
1693;SDS011;71975;47.068;15.408;2024-02-23T16:39:02;7.97;;;6.40;;
1693;SDS011;71975;47.068;15.408;2024-02-23T16:44:10;6.03;;;5.43;;
1693;SDS011;71975;47.068;15.408;2024-02-23T16:49:15;11.40;;;6.10;;
1693;SDS011;71975;47.068;15.408;2024-02-23T16:54:18;6.17;;;5.37;;
1693;SDS011;71975;47.068;15.408;2024-02-23T16:59:23;7.67;;;6.07;;
1693;SDS011;71975;47.068;15.408;2024-02-23T17:04:26;8.30;;;6.30;;
1693;SDS011;71975;47.068;15.408;2024-02-23T17:09:30;6.50;;;4.53;;
1693;SDS011;71975;47.068;15.408;2024-02-23T17:14:34;5.93;;;5.33;;
1693;SDS011;71975;47.068;15.408;2024-02-23T17:19:37;6.47;;;5.40;;
1693;SDS011;71975;47.068;15.408;2024-02-23T17:24:42;5.67;;;5.10;;
1693;SDS011;71975;47.068;15.408;2024-02-23T17:29:46;5.33;;;4.83;;
1693;SDS011;71975;47.068;15.408;2024-02-23T17:34:49;5.77;;;5.27;;
1693;SDS011;71975;47.068;15.408;2024-02-23T17:39:53;10.13;;;7.63;;
1693;SDS011;71975;47.068;15.408;2024-02-23T17:44:58;6.10;;;5.60;;
1693;SDS011;71975;47.068;15.408;2024-02-23T17:50:01;7.50;;;6.90;;
1693;SDS011;71975;47.068;15.408;2024-02-23T17:55:05;6.43;;;5.83;;
1693;SDS011;71975;47.068;15.408;2024-02-23T18:00:10;6.50;;;5.63;;
1693;SDS011;71975;47.068;15.408;2024-02-23T18:05:14;6.50;;;5.87;;
1693;SDS011;71975;47.068;15.408;2024-02-23T18:10:17;6.97;;;6.30;;
1693;SDS011;71975;47.068;15.408;2024-02-23T18:15:22;17.57;;;11.30;;
1693;SDS011;71975;47.068;15.408;2024-02-23T18:20:26;6.77;;;6.10;;
1693;SDS011;71975;47.068;15.408;2024-02-23T18:25:29;7.23;;;6.50;;
1693;SDS011;71975;47.068;15.408;2024-02-23T18:30:33;6.27;;;5.70;;
1693;SDS011;71975;47.068;15.408;2024-02-23T18:35:37;6.77;;;6.17;;
1693;SDS011;71975;47.068;15.408;2024-02-23T18:40:40;10.70;;;6.53;;
1693;SDS011;71975;47.068;15.408;2024-02-23T18:45:44;10.13;;;6.50;;
1693;SDS011;71975;47.068;15.408;2024-02-23T18:50:47;6.97;;;6.33;;
1693;SDS011;71975;47.068;15.408;2024-02-23T18:55:50;8.73;;;6.40;;
1693;SDS011;71975;47.068;15.408;2024-02-23T19:00:55;8.23;;;6.77;;
1693;SDS011;71975;47.068;15.408;2024-02-23T19:05:59;9.10;;;7.63;;
1693;SDS011;71975;47.068;15.408;2024-02-23T19:11:03;8.10;;;7.30;;
1693;SDS011;71975;47.068;15.408;2024-02-23T19:16:12;9.73;;;8.00;;
1693;SDS011;71975;47.068;15.408;2024-02-23T19:21:16;8.73;;;7.33;;
1693;SDS011;71975;47.068;15.408;2024-02-23T19:26:19;7.83;;;7.13;;
1693;SDS011;71975;47.068;15.408;2024-02-23T19:31:23;8.93;;;7.47;;
1693;SDS011;71975;47.068;15.408;2024-02-23T19:36:28;9.50;;;8.50;;
1693;SDS011;71975;47.068;15.408;2024-02-23T19:41:31;13.57;;;12.13;;
1693;SDS011;71975;47.068;15.408;2024-02-23T19:46:35;10.00;;;8.97;;
1693;SDS011;71975;47.068;15.408;2024-02-23T19:51:41;9.10;;;8.30;;
1693;SDS011;71975;47.068;15.408;2024-02-23T19:56:44;10.23;;;9.30;;
1693;SDS011;71975;47.068;15.408;2024-02-23T20:01:49;14.40;;;11.17;;
1693;SDS011;71975;47.068;15.408;2024-02-23T20:06:52;11.13;;;9.87;;
1693;SDS011;71975;47.068;15.408;2024-02-23T20:11:56;11.10;;;10.10;;
1693;SDS011;71975;47.068;15.408;2024-02-23T20:17:01;9.40;;;8.50;;
1693;SDS011;71975;47.068;15.408;2024-02-23T20:22:04;9.20;;;7.90;;
1693;SDS011;71975;47.068;15.408;2024-02-23T20:27:07;13.70;;;10.53;;
1693;SDS011;71975;47.068;15.408;2024-02-23T20:32:12;11.27;;;10.10;;
1693;SDS011;71975;47.068;15.408;2024-02-23T20:37:26;13.13;;;10.93;;
1693;SDS011;71975;47.068;15.408;2024-02-23T20:42:30;11.17;;;10.00;;
1693;SDS011;71975;47.068;15.408;2024-02-23T20:47:34;12.53;;;11.23;;
1693;SDS011;71975;47.068;15.408;2024-02-23T20:52:37;11.70;;;10.50;;
1693;SDS011;71975;47.068;15.408;2024-02-23T20:57:40;12.50;;;11.20;;
1693;SDS011;71975;47.068;15.408;2024-02-23T21:02:45;12.37;;;11.27;;
1693;SDS011;71975;47.068;15.408;2024-02-23T21:07:49;11.63;;;10.63;;
1693;SDS011;71975;47.068;15.408;2024-02-23T21:12:52;11.13;;;10.10;;
1693;SDS011;71975;47.068;15.408;2024-02-23T21:17:56;11.20;;;10.00;;
1693;SDS011;71975;47.068;15.408;2024-02-23T21:22:59;12.73;;;11.43;;
1693;SDS011;71975;47.068;15.408;2024-02-23T21:28:02;13.63;;;11.57;;
1693;SDS011;71975;47.068;15.408;2024-02-23T21:33:07;12.33;;;11.13;;
1693;SDS011;71975;47.068;15.408;2024-02-23T21:38:10;28.40;;;20.00;;
1693;SDS011;71975;47.068;15.408;2024-02-23T21:43:13;16.17;;;14.53;;
1693;SDS011;71975;47.068;15.408;2024-02-23T21:48:18;15.20;;;13.67;;
1693;SDS011;71975;47.068;15.408;2024-02-23T21:53:21;15.03;;;13.57;;
1693;SDS011;71975;47.068;15.408;2024-02-23T21:58:24;15.50;;;13.23;;
1693;SDS011;71975;47.068;15.408;2024-02-23T22:03:28;14.37;;;12.90;;
1693;SDS011;71975;47.068;15.408;2024-02-23T22:08:33;11.63;;;10.53;;
1693;SDS011;71975;47.068;15.408;2024-02-23T22:13:36;12.80;;;11.47;;
1693;SDS011;71975;47.068;15.408;2024-02-23T22:18:40;15.53;;;12.27;;
1693;SDS011;71975;47.068;15.408;2024-02-23T22:23:43;15.93;;;13.40;;
1693;SDS011;71975;47.068;15.408;2024-02-23T22:28:46;15.20;;;13.80;;
1693;SDS011;71975;47.068;15.408;2024-02-23T22:33:51;13.60;;;12.20;;
1693;SDS011;71975;47.068;15.408;2024-02-23T22:38:54;14.03;;;11.70;;
1693;SDS011;71975;47.068;15.408;2024-02-23T22:43:57;13.50;;;12.30;;
1693;SDS011;71975;47.068;15.408;2024-02-23T22:49:01;14.20;;;12.30;;
1693;SDS011;71975;47.068;15.408;2024-02-23T22:54:04;14.60;;;13.20;;
1693;SDS011;71975;47.068;15.408;2024-02-23T22:59:07;12.53;;;11.43;;
1693;SDS011;71975;47.068;15.408;2024-02-23T23:04:12;14.83;;;13.33;;
1693;SDS011;71975;47.068;15.408;2024-02-23T23:09:16;16.00;;;14.50;;
1693;SDS011;71975;47.068;15.408;2024-02-23T23:14:19;12.87;;;11.67;;
1693;SDS011;71975;47.068;15.408;2024-02-23T23:19:24;14.43;;;12.97;;
1693;SDS011;71975;47.068;15.408;2024-02-23T23:24:27;13.37;;;12.10;;
1693;SDS011;71975;47.068;15.408;2024-02-23T23:29:29;14.20;;;12.80;;
1693;SDS011;71975;47.068;15.408;2024-02-23T23:34:34;12.63;;;11.53;;
1693;SDS011;71975;47.068;15.408;2024-02-23T23:39:37;11.83;;;10.47;;
1693;SDS011;71975;47.068;15.408;2024-02-23T23:44:40;11.53;;;10.33;;
1693;SDS011;71975;47.068;15.408;2024-02-23T23:49:44;11.47;;;10.33;;
1693;SDS011;71975;47.068;15.408;2024-02-23T23:54:47;12.60;;;10.40;;
1693;SDS011;71975;47.068;15.408;2024-02-23T23:59:50;11.30;;;10.30;;
